sensor_id;sensor_type;location;lat;lon;timestamp;temperature;humidity
52963;DHT22;38827;53.024;6.596;2023-06-10T00:00:31;17.00;61.20
52963;DHT22;38827;53.024;6.596;2023-06-10T00:03:03;16.90;61.30
52963;DHT22;38827;53.024;6.596;2023-06-10T00:05:28;16.90;61.10
52963;DHT22;38827;53.024;6.596;2023-06-10T00:07:57;16.90;61.10
52963;DHT22;38827;53.024;6.596;2023-06-10T00:10:35;16.90;61.10
52963;DHT22;38827;53.024;6.596;2023-06-10T00:13:05;16.80;61.20
52963;DHT22;38827;53.024;6.596;2023-06-10T00:15:34;16.80;61.30
52963;DHT22;38827;53.024;6.596;2023-06-10T00:18:13;16.70;61.30
52963;DHT22;38827;53.024;6.596;2023-06-10T00:20:39;16.70;61.40
52963;DHT22;38827;53.024;6.596;2023-06-10T00:23:20;16.60;61.40
52963;DHT22;38827;53.024;6.596;2023-06-10T00:25:55;16.60;61.50
52963;DHT22;38827;53.024;6.596;2023-06-10T00:28:37;16.60;61.40
52963;DHT22;38827;53.024;6.596;2023-06-10T00:31:14;16.60;61.40
52963;DHT22;38827;53.024;6.596;2023-06-10T00:33:47;16.50;61.50
52963;DHT22;38827;53.024;6.596;2023-06-10T00:36:13;16.50;61.60
52963;DHT22;38827;53.024;6.596;2023-06-10T00:38:44;16.50;61.70
52963;DHT22;38827;53.024;6.596;2023-06-10T00:41:16;16.40;61.70
52963;DHT22;38827;53.024;6.596;2023-06-10T00:43:42;16.40;61.70
52963;DHT22;38827;53.024;6.596;2023-06-10T00:46:07;16.30;61.70
52963;DHT22;38827;53.024;6.596;2023-06-10T00:48:34;16.30;61.80
52963;DHT22;38827;53.024;6.596;2023-06-10T00:51:00;16.30;61.80
52963;DHT22;38827;53.024;6.596;2023-06-10T00:53:26;16.30;61.80
52963;DHT22;38827;53.024;6.596;2023-06-10T00:55:53;16.20;61.80
52963;DHT22;38827;53.024;6.596;2023-06-10T00:58:19;16.20;61.80
52963;DHT22;38827;53.024;6.596;2023-06-10T01:01:00;16.20;61.80
52963;DHT22;38827;53.024;6.596;2023-06-10T01:03:26;16.20;61.80
52963;DHT22;38827;53.024;6.596;2023-06-10T01:05:59;16.10;61.70
52963;DHT22;38827;53.024;6.596;2023-06-10T01:11:07;16.10;61.60
52963;DHT22;38827;53.024;6.596;2023-06-10T01:13:36;16.00;61.80
52963;DHT22;38827;53.024;6.596;2023-06-10T01:16:05;16.00;61.80
52963;DHT22;38827;53.024;6.596;2023-06-10T01:18:33;16.00;61.60
52963;DHT22;38827;53.024;6.596;2023-06-10T01:20:58;16.00;61.60
52963;DHT22;38827;53.024;6.596;2023-06-10T01:23:24;15.90;61.70
52963;DHT22;38827;53.024;6.596;2023-06-10T01:25:59;15.90;61.70
52963;DHT22;38827;53.024;6.596;2023-06-10T01:28:43;15.90;61.60
52963;DHT22;38827;53.024;6.596;2023-06-10T01:33:52;15.80;61.50
52963;DHT22;38827;53.024;6.596;2023-06-10T01:36:20;15.70;61.70
52963;DHT22;38827;53.024;6.596;2023-06-10T01:38:48;15.70;61.60
52963;DHT22;38827;53.024;6.596;2023-06-10T01:41:18;15.70;61.80
52963;DHT22;38827;53.024;6.596;2023-06-10T01:43:53;15.70;61.80
52963;DHT22;38827;53.024;6.596;2023-06-10T01:46:26;15.60;61.80
52963;DHT22;38827;53.024;6.596;2023-06-10T01:49:00;15.60;61.90
52963;DHT22;38827;53.024;6.596;2023-06-10T01:51:26;15.60;62.00
52963;DHT22;38827;53.024;6.596;2023-06-10T01:53:57;15.50;62.00
52963;DHT22;38827;53.024;6.596;2023-06-10T01:56:34;15.50;62.10
52963;DHT22;38827;53.024;6.596;2023-06-10T01:58:59;15.50;62.10
52963;DHT22;38827;53.024;6.596;2023-06-10T02:01:40;15.40;62.30
52963;DHT22;38827;53.024;6.596;2023-06-10T02:04:18;15.40;62.40
52963;DHT22;38827;53.024;6.596;2023-06-10T02:06:44;15.40;62.30
52963;DHT22;38827;53.024;6.596;2023-06-10T02:09:16;15.30;62.40
52963;DHT22;38827;53.024;6.596;2023-06-10T02:11:47;15.30;62.50
52963;DHT22;38827;53.024;6.596;2023-06-10T02:14:12;15.30;62.70
52963;DHT22;38827;53.024;6.596;2023-06-10T02:16:39;15.20;62.80
52963;DHT22;38827;53.024;6.596;2023-06-10T02:19:05;15.20;62.90
52963;DHT22;38827;53.024;6.596;2023-06-10T02:21:32;15.10;63.00
52963;DHT22;38827;53.024;6.596;2023-06-10T02:23:58;15.00;63.20
52963;DHT22;38827;53.024;6.596;2023-06-10T02:26:23;15.00;63.20
52963;DHT22;38827;53.024;6.596;2023-06-10T02:28:51;15.00;63.40
52963;DHT22;38827;53.024;6.596;2023-06-10T02:31:17;14.90;63.70
52963;DHT22;38827;53.024;6.596;2023-06-10T02:33:43;14.90;63.70
52963;DHT22;38827;53.024;6.596;2023-06-10T02:36:10;14.90;63.90
52963;DHT22;38827;53.024;6.596;2023-06-10T02:38:41;14.80;64.00
52963;DHT22;38827;53.024;6.596;2023-06-10T02:41:07;14.80;64.20
52963;DHT22;38827;53.024;6.596;2023-06-10T02:43:33;14.80;64.40
52963;DHT22;38827;53.024;6.596;2023-06-10T02:45:59;14.70;64.40
52963;DHT22;38827;53.024;6.596;2023-06-10T02:48:25;14.70;64.70
52963;DHT22;38827;53.024;6.596;2023-06-10T02:50:52;14.70;64.90
52963;DHT22;38827;53.024;6.596;2023-06-10T02:53:17;14.60;64.90
52963;DHT22;38827;53.024;6.596;2023-06-10T02:55:43;14.60;65.20
52963;DHT22;38827;53.024;6.596;2023-06-10T02:58:09;14.60;65.50
52963;DHT22;38827;53.024;6.596;2023-06-10T03:00:35;14.60;65.50
52963;DHT22;38827;53.024;6.596;2023-06-10T03:03:02;14.50;65.80
52963;DHT22;38827;53.024;6.596;2023-06-10T03:05:32;14.40;65.90
52963;DHT22;38827;53.024;6.596;2023-06-10T03:07:58;14.40;66.00
52963;DHT22;38827;53.024;6.596;2023-06-10T03:10:24;14.40;66.20
52963;DHT22;38827;53.024;6.596;2023-06-10T03:12:49;14.40;66.50
52963;DHT22;38827;53.024;6.596;2023-06-10T03:15:15;14.30;66.70
52963;DHT22;38827;53.024;6.596;2023-06-10T03:17:41;14.30;66.90
52963;DHT22;38827;53.024;6.596;2023-06-10T03:20:07;14.30;67.10
52963;DHT22;38827;53.024;6.596;2023-06-10T03:22:38;14.30;67.40
52963;DHT22;38827;53.024;6.596;2023-06-10T03:25:06;14.20;67.60
52963;DHT22;38827;53.024;6.596;2023-06-10T03:27:40;14.20;67.80
52963;DHT22;38827;53.024;6.596;2023-06-10T03:30:06;14.20;68.10
52963;DHT22;38827;53.024;6.596;2023-06-10T03:32:32;14.20;68.20
52963;DHT22;38827;53.024;6.596;2023-06-10T03:34:58;14.20;68.40
52963;DHT22;38827;53.024;6.596;2023-06-10T03:37:24;14.10;68.60
52963;DHT22;38827;53.024;6.596;2023-06-10T03:39:53;14.10;68.80
52963;DHT22;38827;53.024;6.596;2023-06-10T03:42:19;14.10;69.10
52963;DHT22;38827;53.024;6.596;2023-06-10T03:44:45;14.10;69.20
52963;DHT22;38827;53.024;6.596;2023-06-10T03:47:10;14.00;69.40
52963;DHT22;38827;53.024;6.596;2023-06-10T03:49:38;14.00;69.70
52963;DHT22;38827;53.024;6.596;2023-06-10T03:52:06;14.00;70.00
52963;DHT22;38827;53.024;6.596;2023-06-10T03:54:32;14.00;70.20
52963;DHT22;38827;53.024;6.596;2023-06-10T03:57:00;14.00;70.30
52963;DHT22;38827;53.024;6.596;2023-06-10T03:59:25;14.00;70.50
52963;DHT22;38827;53.024;6.596;2023-06-10T04:01:51;14.00;70.70
52963;DHT22;38827;53.024;6.596;2023-06-10T04:04:19;14.00;71.00
52963;DHT22;38827;53.024;6.596;2023-06-10T04:06:45;14.00;71.00
52963;DHT22;38827;53.024;6.596;2023-06-10T04:09:12;14.00;71.30
52963;DHT22;38827;53.024;6.596;2023-06-10T04:11:38;14.00;71.40
52963;DHT22;38827;53.024;6.596;2023-06-10T04:14:34;14.00;71.60
52963;DHT22;38827;53.024;6.596;2023-06-10T04:17:08;14.10;71.90
52963;DHT22;38827;53.024;6.596;2023-06-10T04:19:40;14.20;72.10
52963;DHT22;38827;53.024;6.596;2023-06-10T04:22:15;14.20;72.10
52963;DHT22;38827;53.024;6.596;2023-06-10T04:24:44;14.30;72.30
52963;DHT22;38827;53.024;6.596;2023-06-10T04:27:15;14.30;72.40
52963;DHT22;38827;53.024;6.596;2023-06-10T04:29:41;14.40;72.50
52963;DHT22;38827;53.024;6.596;2023-06-10T04:32:10;14.40;72.60
52963;DHT22;38827;53.024;6.596;2023-06-10T04:34:38;14.50;72.70
52963;DHT22;38827;53.024;6.596;2023-06-10T04:37:04;14.60;72.70
52963;DHT22;38827;53.024;6.596;2023-06-10T04:39:30;14.60;72.70
52963;DHT22;38827;53.024;6.596;2023-06-10T04:42:05;14.70;72.80
52963;DHT22;38827;53.024;6.596;2023-06-10T04:44:40;14.70;72.80
52963;DHT22;38827;53.024;6.596;2023-06-10T04:47:18;14.80;72.90
52963;DHT22;38827;53.024;6.596;2023-06-10T04:49:53;14.80;72.90
52963;DHT22;38827;53.024;6.596;2023-06-10T04:52:18;14.80;73.00
52963;DHT22;38827;53.024;6.596;2023-06-10T04:55:02;14.90;73.10
52963;DHT22;38827;53.024;6.596;2023-06-10T04:57:34;15.00;73.30
52963;DHT22;38827;53.024;6.596;2023-06-10T05:00:00;15.00;73.10
52963;DHT22;38827;53.024;6.596;2023-06-10T05:02:28;15.00;73.10
52963;DHT22;38827;53.024;6.596;2023-06-10T05:08:44;15.20;73.20
52963;DHT22;38827;53.024;6.596;2023-06-10T05:11:09;15.20;73.30
52963;DHT22;38827;53.024;6.596;2023-06-10T05:13:38;15.20;73.00
52963;DHT22;38827;53.024;6.596;2023-06-10T05:16:05;15.40;73.00
52963;DHT22;38827;53.024;6.596;2023-06-10T05:18:44;15.40;73.00
52963;DHT22;38827;53.024;6.596;2023-06-10T05:23:58;15.50;72.90
52963;DHT22;38827;53.024;6.596;2023-06-10T05:26:24;15.50;72.80
52963;DHT22;38827;53.024;6.596;2023-06-10T05:29:03;15.60;72.70
52963;DHT22;38827;53.024;6.596;2023-06-10T05:31:48;15.70;72.70
52963;DHT22;38827;53.024;6.596;2023-06-10T05:34:13;15.80;72.70
52963;DHT22;38827;53.024;6.596;2023-06-10T05:36:39;15.80;72.50
52963;DHT22;38827;53.024;6.596;2023-06-10T05:39:06;15.80;72.40
52963;DHT22;38827;53.024;6.596;2023-06-10T05:42:06;15.90;72.50
52963;DHT22;38827;53.024;6.596;2023-06-10T05:44:35;16.00;72.10
52963;DHT22;38827;53.024;6.596;2023-06-10T05:47:04;16.10;72.00
52963;DHT22;38827;53.024;6.596;2023-06-10T05:49:54;16.10;71.70
52963;DHT22;38827;53.024;6.596;2023-06-10T05:52:29;16.20;71.60
52963;DHT22;38827;53.024;6.596;2023-06-10T05:55:01;16.30;71.50
52963;DHT22;38827;53.024;6.596;2023-06-10T05:57:42;16.40;71.20
52963;DHT22;38827;53.024;6.596;2023-06-10T06:00:08;16.50;70.70
52963;DHT22;38827;53.024;6.596;2023-06-10T06:02:35;16.60;70.60
52963;DHT22;38827;53.024;6.596;2023-06-10T06:05:18;16.60;70.50
52963;DHT22;38827;53.024;6.596;2023-06-10T06:07:55;16.80;70.40
52963;DHT22;38827;53.024;6.596;2023-06-10T06:10:21;16.90;69.70
52963;DHT22;38827;53.024;6.596;2023-06-10T06:13:21;17.00;69.60
52963;DHT22;38827;53.024;6.596;2023-06-10T06:15:47;17.10;69.10
52963;DHT22;38827;53.024;6.596;2023-06-10T06:18:27;17.20;69.00
52963;DHT22;38827;53.024;6.596;2023-06-10T06:20:56;17.20;68.70
52963;DHT22;38827;53.024;6.596;2023-06-10T06:23:33;17.30;68.70
52963;DHT22;38827;53.024;6.596;2023-06-10T06:26:15;17.40;68.60
52963;DHT22;38827;53.024;6.596;2023-06-10T06:28:49;17.60;68.00
52963;DHT22;38827;53.024;6.596;2023-06-10T06:31:15;17.70;67.90
52963;DHT22;38827;53.024;6.596;2023-06-10T06:33:41;17.80;67.50
52963;DHT22;38827;53.024;6.596;2023-06-10T06:36:06;18.00;67.30
52963;DHT22;38827;53.024;6.596;2023-06-10T06:38:35;18.10;66.90
52963;DHT22;38827;53.024;6.596;2023-06-10T06:41:04;18.20;66.50
52963;DHT22;38827;53.024;6.596;2023-06-10T06:43:38;18.30;66.20
52963;DHT22;38827;53.024;6.596;2023-06-10T06:46:05;18.30;65.90
52963;DHT22;38827;53.024;6.596;2023-06-10T06:49:20;18.40;65.80
52963;DHT22;38827;53.024;6.596;2023-06-10T06:55:40;18.50;64.80
52963;DHT22;38827;53.024;6.596;2023-06-10T06:58:44;18.60;64.70
52963;DHT22;38827;53.024;6.596;2023-06-10T07:01:35;18.70;64.30
52963;DHT22;38827;53.024;6.596;2023-06-10T07:04:08;18.80;64.20
52963;DHT22;38827;53.024;6.596;2023-06-10T07:06:34;18.90;63.90
52963;DHT22;38827;53.024;6.596;2023-06-10T07:09:21;19.00;63.50
52963;DHT22;38827;53.024;6.596;2023-06-10T07:11:49;19.10;62.60
52963;DHT22;38827;53.024;6.596;2023-06-10T07:14:21;19.20;61.90
52963;DHT22;38827;53.024;6.596;2023-06-10T07:16:53;19.30;61.30
52963;DHT22;38827;53.024;6.596;2023-06-10T07:19:28;19.40;61.10
52963;DHT22;38827;53.024;6.596;2023-06-10T07:22:15;19.50;60.60
52963;DHT22;38827;53.024;6.596;2023-06-10T07:25:02;19.70;59.70
52963;DHT22;38827;53.024;6.596;2023-06-10T07:27:31;19.80;59.60
52963;DHT22;38827;53.024;6.596;2023-06-10T07:30:25;19.90;59.30
52963;DHT22;38827;53.024;6.596;2023-06-10T07:33:05;20.00;58.60
52963;DHT22;38827;53.024;6.596;2023-06-10T07:35:38;20.10;58.10
52963;DHT22;38827;53.024;6.596;2023-06-10T07:38:06;20.30;57.90
52963;DHT22;38827;53.024;6.596;2023-06-10T07:40:32;20.40;57.40
52963;DHT22;38827;53.024;6.596;2023-06-10T07:43:00;20.50;57.30
52963;DHT22;38827;53.024;6.596;2023-06-10T07:45:32;20.70;56.90
52963;DHT22;38827;53.024;6.596;2023-06-10T07:47:57;20.90;56.50
52963;DHT22;38827;53.024;6.596;2023-06-10T07:50:38;21.10;56.00
52963;DHT22;38827;53.024;6.596;2023-06-10T07:53:04;21.20;54.80
52963;DHT22;38827;53.024;6.596;2023-06-10T07:55:41;21.30;54.50
52963;DHT22;38827;53.024;6.596;2023-06-10T07:58:07;21.30;54.20
52963;DHT22;38827;53.024;6.596;2023-06-10T08:00:33;21.30;54.20
52963;DHT22;38827;53.024;6.596;2023-06-10T08:03:10;21.30;54.10
52963;DHT22;38827;53.024;6.596;2023-06-10T08:05:45;21.40;53.40
52963;DHT22;38827;53.024;6.596;2023-06-10T08:08:17;21.50;53.40
52963;DHT22;38827;53.024;6.596;2023-06-10T08:10:58;21.60;52.50
52963;DHT22;38827;53.024;6.596;2023-06-10T08:13:39;21.70;52.70
52963;DHT22;38827;53.024;6.596;2023-06-10T08:16:05;21.70;52.80
52963;DHT22;38827;53.024;6.596;2023-06-10T08:18:31;21.80;53.40
52963;DHT22;38827;53.024;6.596;2023-06-10T08:21:09;21.90;52.20
52963;DHT22;38827;53.024;6.596;2023-06-10T08:23:34;22.10;51.50
52963;DHT22;38827;53.024;6.596;2023-06-10T08:26:00;22.20;51.50
52963;DHT22;38827;53.024;6.596;2023-06-10T08:28:26;22.40;51.40
52963;DHT22;38827;53.024;6.596;2023-06-10T08:30:55;22.50;51.30
52963;DHT22;38827;53.024;6.596;2023-06-10T08:33:27;22.70;50.30
52963;DHT22;38827;53.024;6.596;2023-06-10T08:36:02;22.80;50.90
52963;DHT22;38827;53.024;6.596;2023-06-10T08:38:37;23.00;50.80
52963;DHT22;38827;53.024;6.596;2023-06-10T08:41:06;23.30;50.60
52963;DHT22;38827;53.024;6.596;2023-06-10T08:44:08;23.50;49.50
52963;DHT22;38827;53.024;6.596;2023-06-10T08:46:45;23.70;48.60
52963;DHT22;38827;53.024;6.596;2023-06-10T08:49:18;23.80;47.60
52963;DHT22;38827;53.024;6.596;2023-06-10T08:51:49;23.90;47.80
52963;DHT22;38827;53.024;6.596;2023-06-10T08:54:33;24.00;47.60
52963;DHT22;38827;53.024;6.596;2023-06-10T08:57:26;24.10;46.90
52963;DHT22;38827;53.024;6.596;2023-06-10T09:00:05;24.20;46.40
52963;DHT22;38827;53.024;6.596;2023-06-10T09:02:33;24.40;46.40
52963;DHT22;38827;53.024;6.596;2023-06-10T09:05:10;24.50;46.50
52963;DHT22;38827;53.024;6.596;2023-06-10T09:07:36;24.70;46.40
52963;DHT22;38827;53.024;6.596;2023-06-10T09:10:03;24.80;45.70
52963;DHT22;38827;53.024;6.596;2023-06-10T09:12:30;24.90;45.70
52963;DHT22;38827;53.024;6.596;2023-06-10T09:15:08;25.00;45.60
52963;DHT22;38827;53.024;6.596;2023-06-10T09:17:38;25.10;44.60
52963;DHT22;38827;53.024;6.596;2023-06-10T09:20:07;25.20;44.40
52963;DHT22;38827;53.024;6.596;2023-06-10T09:22:48;25.30;43.60
52963;DHT22;38827;53.024;6.596;2023-06-10T09:25:14;25.40;43.00
52963;DHT22;38827;53.024;6.596;2023-06-10T09:27:53;25.50;44.00
52963;DHT22;38827;53.024;6.596;2023-06-10T09:30:37;25.70;44.60
52963;DHT22;38827;53.024;6.596;2023-06-10T09:33:13;26.00;43.70
52963;DHT22;38827;53.024;6.596;2023-06-10T09:35:53;26.20;42.30
52963;DHT22;38827;53.024;6.596;2023-06-10T09:38:42;26.40;42.40
52963;DHT22;38827;53.024;6.596;2023-06-10T09:41:20;26.50;42.00
52963;DHT22;38827;53.024;6.596;2023-06-10T09:43:47;26.60;40.40
52963;DHT22;38827;53.024;6.596;2023-06-10T09:49:00;26.80;40.70
52963;DHT22;38827;53.024;6.596;2023-06-10T09:51:32;26.90;41.00
52963;DHT22;38827;53.024;6.596;2023-06-10T09:54:10;27.10;40.30
52963;DHT22;38827;53.024;6.596;2023-06-10T09:56:39;27.30;39.10
52963;DHT22;38827;53.024;6.596;2023-06-10T09:59:08;27.50;39.10
52963;DHT22;38827;53.024;6.596;2023-06-10T10:01:34;27.70;39.60
52963;DHT22;38827;53.024;6.596;2023-06-10T10:04:00;27.80;39.50
52963;DHT22;38827;53.024;6.596;2023-06-10T10:06:32;27.90;39.60
52963;DHT22;38827;53.024;6.596;2023-06-10T10:09:17;27.90;39.00
52963;DHT22;38827;53.024;6.596;2023-06-10T10:11:49;28.00;39.80
52963;DHT22;38827;53.024;6.596;2023-06-10T10:14:19;28.20;38.00
52963;DHT22;38827;53.024;6.596;2023-06-10T10:17:09;28.40;37.40
52963;DHT22;38827;53.024;6.596;2023-06-10T10:22:30;28.70;37.10
52963;DHT22;38827;53.024;6.596;2023-06-10T10:25:11;28.90;36.00
52963;DHT22;38827;53.024;6.596;2023-06-10T10:28:28;29.00;35.10
52963;DHT22;38827;53.024;6.596;2023-06-10T10:31:22;29.00;34.30
52963;DHT22;38827;53.024;6.596;2023-06-10T10:34:16;29.10;35.40
52963;DHT22;38827;53.024;6.596;2023-06-10T10:37:04;29.20;35.70
52963;DHT22;38827;53.024;6.596;2023-06-10T10:39:30;29.30;34.00
52963;DHT22;38827;53.024;6.596;2023-06-10T10:41:57;29.40;33.90
52963;DHT22;38827;53.024;6.596;2023-06-10T10:44:32;29.50;34.80
52963;DHT22;38827;53.024;6.596;2023-06-10T10:47:02;29.70;34.80
52963;DHT22;38827;53.024;6.596;2023-06-10T10:49:37;29.80;34.30
52963;DHT22;38827;53.024;6.596;2023-06-10T10:52:15;30.00;34.20
52963;DHT22;38827;53.024;6.596;2023-06-10T10:54:47;30.20;33.80
52963;DHT22;38827;53.024;6.596;2023-06-10T10:57:15;30.30;32.30
52963;DHT22;38827;53.024;6.596;2023-06-10T11:00:24;30.30;32.50
52963;DHT22;38827;53.024;6.596;2023-06-10T11:02:50;30.50;32.10
52963;DHT22;38827;53.024;6.596;2023-06-10T11:05:54;30.50;32.70
52963;DHT22;38827;53.024;6.596;2023-06-10T11:14:06;30.80;32.50
52963;DHT22;38827;53.024;6.596;2023-06-10T11:16:41;30.90;33.50
52963;DHT22;38827;53.024;6.596;2023-06-10T11:19:07;31.10;33.60
52963;DHT22;38827;53.024;6.596;2023-06-10T11:22:02;31.30;33.80
52963;DHT22;38827;53.024;6.596;2023-06-10T11:24:49;31.60;33.80
52963;DHT22;38827;53.024;6.596;2023-06-10T11:27:24;31.70;33.40
52963;DHT22;38827;53.024;6.596;2023-06-10T11:32:43;31.80;33.00
52963;DHT22;38827;53.024;6.596;2023-06-10T11:35:23;31.90;32.90
52963;DHT22;38827;53.024;6.596;2023-06-10T11:37:54;32.00;32.00
52963;DHT22;38827;53.024;6.596;2023-06-10T11:40:39;31.90;31.70
52963;DHT22;38827;53.024;6.596;2023-06-10T11:43:25;31.90;32.30
52963;DHT22;38827;53.024;6.596;2023-06-10T11:46:12;32.00;31.50
52963;DHT22;38827;53.024;6.596;2023-06-10T11:48:55;32.00;30.40
52963;DHT22;38827;53.024;6.596;2023-06-10T11:51:21;32.10;30.50
52963;DHT22;38827;53.024;6.596;2023-06-10T11:53:59;32.20;30.30
52963;DHT22;38827;53.024;6.596;2023-06-10T11:56:27;32.40;29.30
52963;DHT22;38827;53.024;6.596;2023-06-10T11:59:08;32.50;28.80
52963;DHT22;38827;53.024;6.596;2023-06-10T12:01:35;32.60;29.60
52963;DHT22;38827;53.024;6.596;2023-06-10T12:04:12;32.70;30.80
52963;DHT22;38827;53.024;6.596;2023-06-10T12:09:42;32.90;30.60
52963;DHT22;38827;53.024;6.596;2023-06-10T12:12:29;32.90;30.60
52963;DHT22;38827;53.024;6.596;2023-06-10T12:15:11;32.90;30.20
52963;DHT22;38827;53.024;6.596;2023-06-10T12:18:07;32.80;30.40
52963;DHT22;38827;53.024;6.596;2023-06-10T12:20:35;32.70;31.50
52963;DHT22;38827;53.024;6.596;2023-06-10T12:23:24;32.70;31.70
52963;DHT22;38827;53.024;6.596;2023-06-10T12:25:52;32.80;32.30
52963;DHT22;38827;53.024;6.596;2023-06-10T12:28:36;32.80;31.60
52963;DHT22;38827;53.024;6.596;2023-06-10T12:31:12;32.80;32.10
52963;DHT22;38827;53.024;6.596;2023-06-10T12:36:48;32.90;32.10
52963;DHT22;38827;53.024;6.596;2023-06-10T12:39:14;32.80;32.00
52963;DHT22;38827;53.024;6.596;2023-06-10T12:41:39;32.80;32.30
52963;DHT22;38827;53.024;6.596;2023-06-10T12:44:06;32.80;32.40
52963;DHT22;38827;53.024;6.596;2023-06-10T12:46:37;32.70;32.20
52963;DHT22;38827;53.024;6.596;2023-06-10T12:49:03;32.60;32.30
52963;DHT22;38827;53.024;6.596;2023-06-10T12:51:29;32.70;33.00
52963;DHT22;38827;53.024;6.596;2023-06-10T12:53:55;32.80;32.00
52963;DHT22;38827;53.024;6.596;2023-06-10T12:56:20;32.80;31.40
52963;DHT22;38827;53.024;6.596;2023-06-10T12:58:47;32.80;32.00
52963;DHT22;38827;53.024;6.596;2023-06-10T13:01:13;32.80;32.20
52963;DHT22;38827;53.024;6.596;2023-06-10T13:03:48;32.80;32.30
52963;DHT22;38827;53.024;6.596;2023-06-10T13:06:27;32.80;32.00
52963;DHT22;38827;53.024;6.596;2023-06-10T13:09:05;32.70;31.80
52963;DHT22;38827;53.024;6.596;2023-06-10T13:11:32;32.50;32.30
52963;DHT22;38827;53.024;6.596;2023-06-10T13:14:04;32.30;32.50
52963;DHT22;38827;53.024;6.596;2023-06-10T13:16:37;32.30;33.10
52963;DHT22;38827;53.024;6.596;2023-06-10T13:19:13;32.30;33.10
52963;DHT22;38827;53.024;6.596;2023-06-10T13:21:48;32.20;33.50
52963;DHT22;38827;53.024;6.596;2023-06-10T13:24:16;32.30;33.30
52963;DHT22;38827;53.024;6.596;2023-06-10T13:26:42;32.20;33.10
52963;DHT22;38827;53.024;6.596;2023-06-10T13:29:23;32.10;33.40
52963;DHT22;38827;53.024;6.596;2023-06-10T13:34:41;31.90;33.70
52963;DHT22;38827;53.024;6.596;2023-06-10T13:37:25;31.70;34.50
52963;DHT22;38827;53.024;6.596;2023-06-10T13:39:53;31.70;34.50
52963;DHT22;38827;53.024;6.596;2023-06-10T13:42:20;31.80;34.90
52963;DHT22;38827;53.024;6.596;2023-06-10T13:44:55;32.00;34.50
52963;DHT22;38827;53.024;6.596;2023-06-10T13:47:22;32.20;34.00
52963;DHT22;38827;53.024;6.596;2023-06-10T13:50:03;32.20;33.50
52963;DHT22;38827;53.024;6.596;2023-06-10T13:52:29;32.30;32.30
52963;DHT22;38827;53.024;6.596;2023-06-10T13:57:30;32.20;32.70
52963;DHT22;38827;53.024;6.596;2023-06-10T14:00:06;32.10;32.70
52963;DHT22;38827;53.024;6.596;2023-06-10T14:02:35;32.00;31.90
52963;DHT22;38827;53.024;6.596;2023-06-10T14:05:01;31.80;32.30
52963;DHT22;38827;53.024;6.596;2023-06-10T14:07:27;31.70;32.40
52963;DHT22;38827;53.024;6.596;2023-06-10T14:09:52;31.60;32.10
52963;DHT22;38827;53.024;6.596;2023-06-10T14:12:21;31.60;32.40
52963;DHT22;38827;53.024;6.596;2023-06-10T14:14:47;31.60;32.80
52963;DHT22;38827;53.024;6.596;2023-06-10T14:17:13;31.70;32.70
52963;DHT22;38827;53.024;6.596;2023-06-10T14:20:04;31.80;32.20
52963;DHT22;38827;53.024;6.596;2023-06-10T14:22:36;31.80;32.30
52963;DHT22;38827;53.024;6.596;2023-06-10T14:25:04;31.90;32.20
52963;DHT22;38827;53.024;6.596;2023-06-10T14:27:54;31.90;31.70
52963;DHT22;38827;53.024;6.596;2023-06-10T14:30:26;31.80;31.00
52963;DHT22;38827;53.024;6.596;2023-06-10T14:32:52;31.70;31.00
52963;DHT22;38827;53.024;6.596;2023-06-10T14:35:36;31.60;31.00
52963;DHT22;38827;53.024;6.596;2023-06-10T14:38:01;31.40;31.30
52963;DHT22;38827;53.024;6.596;2023-06-10T14:40:46;31.30;31.70
52963;DHT22;38827;53.024;6.596;2023-06-10T14:43:12;31.20;31.90
52963;DHT22;38827;53.024;6.596;2023-06-10T14:45:39;31.10;32.00
52963;DHT22;38827;53.024;6.596;2023-06-10T14:48:26;31.20;32.10
52963;DHT22;38827;53.024;6.596;2023-06-10T14:51:04;31.10;32.40
52963;DHT22;38827;53.024;6.596;2023-06-10T14:53:39;31.20;32.50
52963;DHT22;38827;53.024;6.596;2023-06-10T14:56:23;31.20;32.60
52963;DHT22;38827;53.024;6.596;2023-06-10T14:58:59;31.10;32.60
52963;DHT22;38827;53.024;6.596;2023-06-10T15:01:34;30.90;32.70
52963;DHT22;38827;53.024;6.596;2023-06-10T15:04:09;30.80;33.00
52963;DHT22;38827;53.024;6.596;2023-06-10T15:09:14;30.50;33.10
52963;DHT22;38827;53.024;6.596;2023-06-10T15:11:59;30.40;33.30
52963;DHT22;38827;53.024;6.596;2023-06-10T15:14:34;30.40;33.20
52963;DHT22;38827;53.024;6.596;2023-06-10T15:17:00;30.50;33.20
52963;DHT22;38827;53.024;6.596;2023-06-10T15:19:32;30.50;33.30
52963;DHT22;38827;53.024;6.596;2023-06-10T15:24:59;30.40;33.40
52963;DHT22;38827;53.024;6.596;2023-06-10T15:27:30;30.30;33.80
52963;DHT22;38827;53.024;6.596;2023-06-10T15:29:56;30.20;34.00
52963;DHT22;38827;53.024;6.596;2023-06-10T15:32:34;30.20;33.90
52963;DHT22;38827;53.024;6.596;2023-06-10T15:35:29;30.20;34.10
52963;DHT22;38827;53.024;6.596;2023-06-10T15:38:30;30.10;33.90
52963;DHT22;38827;53.024;6.596;2023-06-10T15:41:04;29.90;33.90
52963;DHT22;38827;53.024;6.596;2023-06-10T15:43:32;29.80;34.00
52963;DHT22;38827;53.024;6.596;2023-06-10T15:46:13;29.70;34.00
52963;DHT22;38827;53.024;6.596;2023-06-10T15:48:51;29.80;34.00
52963;DHT22;38827;53.024;6.596;2023-06-10T15:51:34;29.80;34.20
52963;DHT22;38827;53.024;6.596;2023-06-10T15:54:00;29.80;34.20
52963;DHT22;38827;53.024;6.596;2023-06-10T15:56:51;29.80;34.60
52963;DHT22;38827;53.024;6.596;2023-06-10T15:59:26;29.70;34.20
52963;DHT22;38827;53.024;6.596;2023-06-10T16:02:00;29.60;34.30
52963;DHT22;38827;53.024;6.596;2023-06-10T16:04:41;29.50;34.00
52963;DHT22;38827;53.024;6.596;2023-06-10T16:07:28;29.40;34.00
52963;DHT22;38827;53.024;6.596;2023-06-10T16:13:19;29.20;34.40
52963;DHT22;38827;53.024;6.596;2023-06-10T16:15:53;29.10;34.80
52963;DHT22;38827;53.024;6.596;2023-06-10T16:18:37;29.10;34.80
52963;DHT22;38827;53.024;6.596;2023-06-10T16:21:09;29.10;34.50
52963;DHT22;38827;53.024;6.596;2023-06-10T16:23:41;29.00;34.30
52963;DHT22;38827;53.024;6.596;2023-06-10T16:26:09;28.90;34.40
52963;DHT22;38827;53.024;6.596;2023-06-10T16:28:36;28.80;34.40
52963;DHT22;38827;53.024;6.596;2023-06-10T16:31:04;28.80;34.50
52963;DHT22;38827;53.024;6.596;2023-06-10T16:33:39;28.70;34.50
52963;DHT22;38827;53.024;6.596;2023-06-10T16:39:10;28.50;35.20
52963;DHT22;38827;53.024;6.596;2023-06-10T16:41:39;28.50;35.40
52963;DHT22;38827;53.024;6.596;2023-06-10T16:44:05;28.40;35.50
52963;DHT22;38827;53.024;6.596;2023-06-10T16:46:55;28.40;34.90
52963;DHT22;38827;53.024;6.596;2023-06-10T16:49:21;28.30;34.40
52963;DHT22;38827;53.024;6.596;2023-06-10T16:51:54;28.20;34.50
52963;DHT22;38827;53.024;6.596;2023-06-10T16:54:53;28.10;34.60
52963;DHT22;38827;53.024;6.596;2023-06-10T16:57:22;28.00;34.70
52963;DHT22;38827;53.024;6.596;2023-06-10T16:59:48;27.90;35.00